Time,TemperatureF,DewpointF,PressureIn,WindDirection,WindDirectionDegrees,WindSpeedMPH,WindSpeedGustMPH,Humidity,HourlyPrecipIn,Conditions,Clouds,dailyrainin,SoftwareType,DateUTC
2013-02-03 00:00:00,24.4,18.9,29.95,NW,315,0.0,0.0,79,0.00,FEW,,0.00,WeatherDisplay:10.37,2013-02-03 05:00:00,
2013-02-03 00:01:00,24.4,18.9,29.95,NW,315,0.0,0.0,79,0.00,FEW,,0.00,WeatherDisplay:10.37,2013-02-03 05:01:00,
2013-02-03 00:02:00,24.4,18.9,29.95,NNW,338,0.0,0.0,79,0.00,FEW,,0.00,WeatherDisplay:10.37,2013-02-03 05:02:00,
2013-02-03 00:03:00,24.4,18.9,29.95,NW,315,0.0,0.0,79,0.00,FEW,,0.00,WeatherDisplay:10.37,2013-02-03 05:03:00,
2013-02-03 00:08:00,24.4,19.2,29.95,NW,315,0.0,0.0,80,0.00,FEW,,0.00,WeatherDisplay:10.37,2013-02-03 05:08:00,
2013-02-03 00:13:00,24.4,19.2,29.95,NW,315,0.0,0.0,80,0.00,FEW,,0.00,WeatherDisplay:10.37,2013-02-03 05:13:00,
2013-02-03 00:18:00,24.4,19.2,29.95,NNW,338,0.0,0.0,80,0.00,-SN,,0.00,WeatherDisplay:10.37,2013-02-03 05:18:00,
2013-02-03 00:23:00,24.4,19.2,29.95,North,0,0.0,0.0,80,0.00,-SN,,0.00,WeatherDisplay:10.37,2013-02-03 05:23:00,
2013-02-03 00:28:00,24.4,19.2,29.95,NNW,338,0.0,0.0,80,0.00,-SN,,0.00,WeatherDisplay:10.37,2013-02-03 05:28:00,
2013-02-03 00:33:00,24.4,18.9,29.95,NW,315,0.0,0.0,79,0.00,-SN,,0.00,WeatherDisplay:10.37,2013-02-03 05:33:00,
2013-02-03 00:38:00,24.4,18.9,29.93,NW,315,0.0,0.0,79,0.00,-SN,,0.00,WeatherDisplay:10.37,2013-02-03 05:38:00,
2013-02-03 00:43:00,24.4,19.2,29.93,West,270,0.0,0.0,80,0.00,-SN,,0.00,WeatherDisplay:10.37,2013-02-03 05:43:00,
2013-02-03 00:48:00,24.4,19.2,29.93,WSW,248,0.0,0.0,80,0.00,-SN,,0.00,WeatherDisplay:10.37,2013-02-03 05:48:00,
2013-02-03 00:53:00,24.4,19.2,29.93,ESE,112,0.0,0.0,80,0.00,-SN,,0.00,WeatherDisplay:10.37,2013-02-03 05:53:00,
2013-02-03 00:58:00,24.4,19.2,29.92,SSE,158,0.0,0.0,80,0.00,-SN,,0.00,WeatherDisplay:10.37,2013-02-03 05:58:00,
2013-02-03 01:03:00,24.8,19.5,29.92,SSW,202,0.0,0.0,80,0.00,-SN,,0.00,WeatherDisplay:10.37,2013-02-03 06:03:00,
2013-02-03 01:08:00,24.6,19.3,29.92,SW,225,0.0,0.0,80,0.00,-SN,,0.00,WeatherDisplay:10.37,2013-02-03 06:08:00,
2013-02-03 01:13:00,24.6,19.3,29.92,ESE,112,0.0,0.0,80,0.00,-SN,,0.00,WeatherDisplay:10.37,2013-02-03 06:13:00,
2013-02-03 01:18:00,24.6,19.3,29.92,ENE,68,0.0,0.0,80,0.00,-SN,,0.00,WeatherDisplay:10.37,2013-02-03 06:18:00,
2013-02-03 01:23:00,24.8,19.8,29.92,NNW,338,0.0,0.0,81,0.00,-SN,,0.00,WeatherDisplay:10.37,2013-02-03 06:23:00,
2013-02-03 01:28:00,24.6,19.3,29.92,NNE,22,0.0,0.0,80,0.00,-SN,,0.00,WeatherDisplay:10.37,2013-02-03 06:28:00,
2013-02-03 01:33:00,24.6,19.6,29.92,NE,45,0.0,0.0,81,0.00,-SN,,0.00,WeatherDisplay:10.37,2013-02-03 06:33:00,
2013-02-03 01:38:00,24.4,19.4,29.90,NNW,338,0.0,0.0,81,0.00,-SN,,0.00,WeatherDisplay:10.37,2013-02-03 06:38:00,
2013-02-03 01:43:00,24.8,19.8,29.90,North,0,0.0,0.0,81,0.00,-SN,,0.00,WeatherDisplay:10.37,2013-02-03 06:43:00,
2013-02-03 01:48:00,24.6,19.9,29.90,NNE,22,0.0,0.0,82,0.00,-SN,,0.00,WeatherDisplay:10.37,2013-02-03 06:48:00,
2013-02-03 01:53:00,24.8,19.8,29.90,NW,315,0.0,0.0,81,0.00,-SN,,0.00,WeatherDisplay:10.37,2013-02-03 06:53:00,
2013-02-03 01:58:00,24.8,19.8,29.90,NNW,338,0.0,0.0,81,0.00,-SN,,0.00,WeatherDisplay:10.37,2013-02-03 06:58:00,
2013-02-03 02:03:00,24.6,19.6,29.90,North,0,0.0,0.0,81,0.00,-SN,,0.00,WeatherDisplay:10.37,2013-02-03 07:03:00,
2013-02-03 02:08:00,24.4,19.7,29.90,North,0,0.0,0.0,82,0.00,-SN,,0.00,WeatherDisplay:10.37,2013-02-03 07:08:00,
2013-02-03 02:13:00,24.4,19.7,29.90,NE,45,0.0,0.0,82,0.00,-SN,,0.00,WeatherDisplay:10.37,2013-02-03 07:13:00,
2013-02-03 02:18:00,24.4,19.7,29.89,NNW,338,0.0,0.0,82,0.00,-SN,,0.00,WeatherDisplay:10.37,2013-02-03 07:18:00,
2013-02-03 02:23:00,24.4,19.7,29.89,NNW,338,0.0,0.0,82,0.00,-SN,,0.00,WeatherDisplay:10.37,2013-02-03 07:23:00,
2013-02-03 02:28:00,24.4,19.7,29.89,NNW,338,0.0,0.0,82,0.00,-SN,,0.00,WeatherDisplay:10.37,2013-02-03 07:28:00,
2013-02-03 02:33:00,24.4,19.7,29.89,NW,315,0.0,0.0,82,0.00,-SN,,0.00,WeatherDisplay:10.37,2013-02-03 07:33:00,
2013-02-03 02:38:00,24.4,19.7,29.88,NNW,338,0.0,0.0,82,0.00,-SN,,0.00,WeatherDisplay:10.37,2013-02-03 07:38:00,
2013-02-03 02:43:00,24.4,19.7,29.88,North,0,0.0,0.0,82,0.00,-SN,,0.00,WeatherDisplay:10.37,2013-02-03 07:43:00,
2013-02-03 02:48:00,24.4,19.7,29.88,NW,315,0.0,0.0,82,0.00,-SN,,0.00,WeatherDisplay:10.37,2013-02-03 07:48:00,
2013-02-03 02:53:00,24.4,19.7,29.88,NNW,338,0.0,0.0,82,0.00,-SN,,0.00,WeatherDisplay:10.37,2013-02-03 07:53:00,
2013-02-03 02:58:00,24.4,19.7,29.88,North,0,0.0,0.0,82,0.00,-SN,,0.00,WeatherDisplay:10.37,2013-02-03 07:58:00,
2013-02-03 03:03:00,24.4,19.7,29.88,NE,45,0.0,0.0,82,0.00,-SN,,0.00,WeatherDisplay:10.37,2013-02-03 08:03:00,
2013-02-03 03:08:00,24.3,19.6,29.88,NW,315,0.0,0.0,82,0.00,-SN,,0.00,WeatherDisplay:10.37,2013-02-03 08:08:00,
2013-02-03 03:13:00,24.4,19.7,29.88,North,0,0.0,0.0,82,0.00,-SN,,0.00,WeatherDisplay:10.37,2013-02-03 08:13:00,
2013-02-03 03:18:00,24.4,19.7,29.87,NW,315,0.0,0.0,82,0.00,-SN,,0.00,WeatherDisplay:10.37,2013-02-03 08:18:00,
2013-02-03 03:23:00,24.3,19.6,29.87,NW,315,0.0,0.0,82,0.00,-SN,,0.00,WeatherDisplay:10.37,2013-02-03 08:23:00,
2013-02-03 03:28:00,24.4,19.7,29.87,SE,135,0.0,0.0,82,0.00,-SN,,0.00,WeatherDisplay:10.37,2013-02-03 08:28:00,
2013-02-03 03:33:00,24.4,19.7,29.87,NW,315,0.0,0.0,82,0.00,-SN,,0.00,WeatherDisplay:10.37,2013-02-03 08:33:00,
2013-02-03 03:38:00,24.4,19.7,29.85,NW,315,0.0,0.0,82,0.00,-SN,,0.00,WeatherDisplay:10.37,2013-02-03 08:38:00,
2013-02-03 03:43:00,24.4,19.7,29.85,NNE,22,0.0,0.0,82,0.00,-SN,,0.00,WeatherDisplay:10.37,2013-02-03 08:43:00,
2013-02-03 03:48:00,24.4,20.0,29.85,NW,315,0.0,0.0,83,0.00,-SN,,0.00,WeatherDisplay:10.37,2013-02-03 08:48:00,
2013-02-03 03:53:00,24.4,20.0,29.85,NNW,338,0.0,0.0,83,0.00,-SN,,0.00,WeatherDisplay:10.37,2013-02-03 08:53:00,
2013-02-03 03:58:00,24.4,20.0,29.85,NNW,338,0.0,0.0,83,0.00,-SN,,0.00,WeatherDisplay:10.37,2013-02-03 08:58:00,
2013-02-03 04:03:00,24.1,19.4,29.85,NW,315,0.0,0.0,82,0.00,-SN,,0.00,WeatherDisplay:10.37,2013-02-03 09:03:00,
2013-02-03 04:08:00,24.1,19.7,29.85,NNW,338,0.0,0.0,83,0.00,-SN,,0.00,WeatherDisplay:10.37,2013-02-03 09:08:00,
2013-02-03 04:13:00,23.9,19.5,29.85,NW,315,0.0,0.0,83,0.00,-SN,,0.00,WeatherDisplay:10.37,2013-02-03 09:13:00,
2013-02-03 04:18:00,23.9,19.5,29.84,NW,315,0.0,0.0,83,0.00,-SN,,0.00,WeatherDisplay:10.37,2013-02-03 09:18:00,
2013-02-03 04:23:00,23.9,19.5,29.84,NW,315,0.0,0.0,83,0.00,-SN,,0.00,WeatherDisplay:10.37,2013-02-03 09:23:00,
2013-02-03 04:28:00,23.9,19.5,29.84,NW,315,0.0,0.0,83,0.00,-SN,,0.00,WeatherDisplay:10.37,2013-02-03 09:28:00,
2013-02-03 04:33:00,24.1,19.7,29.84,NW,315,0.0,0.0,83,0.00,-SN,,0.00,WeatherDisplay:10.37,2013-02-03 09:33:00,
2013-02-03 04:38:00,24.1,19.7,29.84,North,0,2.3,2.3,83,0.00,-SN,,0.00,WeatherDisplay:10.37,2013-02-03 09:38:00,
2013-02-03 04:43:00,24.1,19.9,29.84,NNW,338,1.1,1.1,84,0.00,-SN,,0.00,WeatherDisplay:10.37,2013-02-03 09:43:00,
2013-02-03 04:48:00,24.1,19.9,29.84,NW,315,2.3,2.3,84,0.00,-SN,,0.00,WeatherDisplay:10.37,2013-02-03 09:48:00,
2013-02-03 04:53:00,24.1,19.9,29.84,NW,315,2.3,2.3,84,0.00,-SN,,0.00,WeatherDisplay:10.37,2013-02-03 09:53:00,
2013-02-03 04:58:00,24.1,19.9,29.83,NW,315,2.3,2.3,84,0.00,-SN,,0.00,WeatherDisplay:10.37,2013-02-03 09:58:00,
2013-02-03 05:03:00,24.1,19.9,29.83,WNW,292,2.3,2.3,84,0.00,-SN,,0.00,WeatherDisplay:10.37,2013-02-03 10:03:00,
2013-02-03 05:08:00,24.1,19.9,29.83,NNE,22,2.3,2.3,84,0.00,-SN,,0.00,WeatherDisplay:10.37,2013-02-03 10:08:00,
2013-02-03 05:13:00,24.1,19.9,29.83,WNW,292,2.3,2.3,84,0.00,-SN,,0.00,WeatherDisplay:10.37,2013-02-03 10:13:00,
2013-02-03 05:18:00,24.1,19.9,29.83,NNE,22,0.0,0.9,84,0.00,-SN,,0.00,WeatherDisplay:10.37,2013-02-03 10:18:00,
2013-02-03 05:23:00,24.1,19.7,29.83,NNE,22,0.0,0.3,83,0.00,-SN,,0.00,WeatherDisplay:10.37,2013-02-03 10:23:00,
2013-02-03 05:28:00,24.1,19.7,29.83,NW,315,1.1,1.1,83,0.00,-SN,,0.00,WeatherDisplay:10.37,2013-02-03 10:28:00,
2013-02-03 05:33:00,24.4,20.0,29.83,NNW,338,0.0,0.3,83,0.00,-SN,,0.00,WeatherDisplay:10.37,2013-02-03 10:33:00,
2013-02-03 05:38:00,24.4,20.0,29.83,North,0,0.0,0.3,83,0.00,-SN,,0.00,WeatherDisplay:10.37,2013-02-03 10:38:00,
2013-02-03 05:43:00,24.3,19.8,29.83,NE,45,0.0,0.1,83,0.00,-SN,,0.00,WeatherDisplay:10.37,2013-02-03 10:43:00,
2013-02-03 05:48:00,24.4,20.0,29.83,North,0,0.0,0.0,83,0.00,-SN,,0.00,WeatherDisplay:10.37,2013-02-03 10:48:00,
2013-02-03 05:53:00,24.4,20.0,29.83,NW,315,0.0,0.1,83,0.00,-SN,,0.00,WeatherDisplay:10.37,2013-02-03 10:53:00,
2013-02-03 05:58:00,24.4,20.0,29.84,NW,315,0.0,0.1,83,0.00,-SN,,0.00,WeatherDisplay:10.37,2013-02-03 10:58:00,
2013-02-03 06:03:00,24.4,20.0,29.84,NNW,338,0.0,0.0,83,0.00,-SN,,0.00,WeatherDisplay:10.37,2013-02-03 11:03:00,
2013-02-03 06:08:00,24.6,19.9,29.84,WNW,292,0.0,0.0,82,0.00,-SN,,0.00,WeatherDisplay:10.37,2013-02-03 11:08:00,
2013-02-03 06:13:00,24.6,19.9,29.84,NW,315,0.0,0.1,82,0.00,-SN,,0.00,WeatherDisplay:10.37,2013-02-03 11:13:00,
2013-02-03 06:18:00,24.6,19.9,29.83,NW,315,0.0,0.1,82,0.00,-SN,,0.00,WeatherDisplay:10.37,2013-02-03 11:18:00,
2013-02-03 06:23:00,24.6,19.9,29.83,NNE,22,2.3,2.3,82,0.00,-SN,,0.00,WeatherDisplay:10.37,2013-02-03 11:23:00,
2013-02-03 06:28:00,24.8,19.8,29.83,NW,315,3.5,3.5,81,0.00,-SN,,0.00,WeatherDisplay:10.37,2013-02-03 11:28:00,
2013-02-03 06:33:00,24.8,19.8,29.83,NW,315,2.6,2.6,81,0.00,-SN,,0.00,WeatherDisplay:10.37,2013-02-03 11:33:00,
2013-02-03 06:38:00,24.6,19.6,29.83,NW,315,1.1,1.1,81,0.00,-SN,,0.00,WeatherDisplay:10.37,2013-02-03 11:38:00,
2013-02-03 06:43:00,24.6,19.3,29.83,NNE,22,2.3,2.3,80,0.00,-SN,,0.00,WeatherDisplay:10.37,2013-02-03 11:43:00,
2013-02-03 06:48:00,24.8,19.5,29.83,North,0,2.3,2.3,80,0.00,-SN,,0.00,WeatherDisplay:10.37,2013-02-03 11:48:00,
2013-02-03 06:53:00,24.4,18.9,29.83,NNW,338,1.3,1.3,79,0.00,-SN,,0.00,WeatherDisplay:10.37,2013-02-03 11:53:00,
2013-02-03 06:58:00,24.8,19.2,29.84,North,0,0.0,0.3,79,0.00,-SN,,0.00,WeatherDisplay:10.37,2013-02-03 11:58:00,
2013-02-03 07:03:00,24.8,19.2,29.84,NW,315,0.0,0.1,79,0.00,-SN,,0.00,WeatherDisplay:10.37,2013-02-03 12:03:00,
2013-02-03 07:08:00,24.8,19.2,29.84,NW,315,0.0,0.0,79,0.00,-SN,,0.00,WeatherDisplay:10.37,2013-02-03 12:08:00,
2013-02-03 07:13:00,24.6,19.0,29.84,West,270,0.0,0.1,79,0.00,-SN,,0.00,WeatherDisplay:10.37,2013-02-03 12:13:00,
2013-02-03 07:18:00,24.6,19.0,29.85,NNW,338,1.1,1.1,79,0.00,-SN,,0.00,WeatherDisplay:10.37,2013-02-03 12:18:00,
2013-02-03 07:23:00,24.6,19.0,29.85,NNW,338,2.3,2.3,79,0.00,-SN,,0.00,WeatherDisplay:10.37,2013-02-03 12:23:00,
2013-02-03 07:28:00,24.8,19.2,29.85,NW,315,0.0,0.3,79,0.00,-SN,,0.00,WeatherDisplay:10.37,2013-02-03 12:28:00,
2013-02-03 07:33:00,24.6,19.0,29.85,NNE,22,2.3,2.3,79,0.00,-SN,,0.00,WeatherDisplay:10.37,2013-02-03 12:33:00,
2013-02-03 07:38:00,24.6,19.0,29.84,NNE,22,1.1,1.1,79,0.00,-SN,,0.00,WeatherDisplay:10.37,2013-02-03 12:38:00,
2013-02-03 07:43:00,24.8,18.9,29.84,NNW,338,2.3,2.3,78,0.00,-SN,,0.00,WeatherDisplay:10.37,2013-02-03 12:43:00,
2013-02-03 07:48:00,25.2,19.3,29.84,NNW,338,1.5,1.5,78,0.00,-SN,,0.00,WeatherDisplay:10.37,2013-02-03 12:48:00,
2013-02-03 07:53:00,24.8,18.9,29.84,NW,315,1.1,1.1,78,0.00,-SN,,0.00,WeatherDisplay:10.37,2013-02-03 12:53:00,
2013-02-03 07:58:00,24.8,18.9,29.85,WNW,292,2.3,2.3,78,0.00,-SN,,0.00,WeatherDisplay:10.37,2013-02-03 12:58:00,
2013-02-03 08:03:00,25.2,19.3,29.85,NW,315,2.3,2.3,78,0.00,-SN,,0.00,WeatherDisplay:10.37,2013-02-03 13:03:00,
2013-02-03 08:08:00,25.0,19.1,29.85,East,90,0.0,0.2,78,0.00,-SN,,0.00,WeatherDisplay:10.37,2013-02-03 13:08:00,
2013-02-03 08:13:00,25.2,19.0,29.85,North,0,1.1,1.1,77,0.00,-SN,,0.00,WeatherDisplay:10.37,2013-02-03 13:13:00,
2013-02-03 08:18:00,25.2,19.0,29.85,North,0,3.5,3.5,77,0.00,-SN,,0.00,WeatherDisplay:10.37,2013-02-03 13:18:00,
2013-02-03 08:23:00,25.2,18.7,29.85,NNE,22,1.1,1.1,76,0.00,-SN,,0.00,WeatherDisplay:10.37,2013-02-03 13:23:00,
2013-02-03 08:28:00,25.2,18.7,29.85,NE,45,0.0,0.8,76,0.00,-SN,,0.00,WeatherDisplay:10.37,2013-02-03 13:28:00,
2013-02-03 08:33:00,25.2,18.7,29.85,West,270,2.3,2.3,76,0.00,-SN,,0.00,WeatherDisplay:10.37,2013-02-03 13:33:00,
2013-02-03 08:38:00,25.2,18.7,29.84,NW,315,2.3,2.3,76,0.00,-SN,,0.00,WeatherDisplay:10.37,2013-02-03 13:38:00,
2013-02-03 08:43:00,25.2,18.7,29.84,NW,315,2.3,2.3,76,0.00,-SN,,0.00,WeatherDisplay:10.37,2013-02-03 13:43:00,
2013-02-03 08:48:00,25.2,18.7,29.84,WNW,292,3.5,3.5,76,0.00,-SN,,0.00,WeatherDisplay:10.37,2013-02-03 13:48:00,
2013-02-03 08:53:00,25.5,19.0,29.84,North,0,2.3,2.3,76,0.00,-SN,,0.00,WeatherDisplay:10.37,2013-02-03 13:53:00,
2013-02-03 08:58:00,25.3,18.8,29.84,NNE,22,0.0,1.0,76,0.00,-SN,,0.00,WeatherDisplay:10.37,2013-02-03 13:58:00,
2013-02-03 09:03:00,25.9,19.7,29.84,NNE,22,2.3,2.3,77,0.00,-SN,,0.00,WeatherDisplay:10.37,2013-02-03 14:03:00,
2013-02-03 09:08:00,25.9,19.7,29.84,NW,315,3.5,3.5,77,0.00,-SN,,0.00,WeatherDisplay:10.37,2013-02-03 14:08:00,
2013-02-03 09:13:00,25.9,19.7,29.84,ENE,68,2.3,2.3,77,0.00,-SN,,0.00,WeatherDisplay:10.37,2013-02-03 14:13:00,
2013-02-03 09:18:00,25.9,19.7,29.83,NW,315,3.5,3.5,77,0.00,-SN,,0.00,WeatherDisplay:10.37,2013-02-03 14:18:00,
2013-02-03 09:23:00,25.9,19.7,29.83,NE,45,2.3,2.3,77,0.00,-SN,,0.00,WeatherDisplay:10.37,2013-02-03 14:23:00,
2013-02-03 09:28:00,25.9,19.7,29.83,NNE,22,4.6,4.6,77,0.00,-SN,,0.00,WeatherDisplay:10.37,2013-02-03 14:28:00,
2013-02-03 09:33:00,25.9,19.7,29.83,NNW,338,3.5,3.5,77,0.00,-SN,,0.00,WeatherDisplay:10.37,2013-02-03 14:33:00,
2013-02-03 09:38:00,26.2,20.0,29.83,NW,315,2.3,2.3,77,0.00,-SN,,0.00,WeatherDisplay:10.37,2013-02-03 14:38:00,
2013-02-03 09:43:00,26.6,20.4,29.83,NE,45,2.3,2.3,77,0.00,-SN,,0.00,WeatherDisplay:10.37,2013-02-03 14:43:00,
2013-02-03 09:48:00,26.4,20.2,29.83,WNW,292,2.3,2.3,77,0.00,-SN,,0.00,WeatherDisplay:10.37,2013-02-03 14:48:00,
2013-02-03 09:53:00,26.6,20.4,29.83,WNW,292,2.3,2.3,77,0.00,-SN,,0.00,WeatherDisplay:10.37,2013-02-03 14:53:00,
2013-02-03 09:58:00,26.6,20.4,29.83,NNW,338,4.6,4.6,77,0.00,-SN,,0.00,WeatherDisplay:10.37,2013-02-03 14:58:00,
2013-02-03 10:03:00,26.8,20.2,29.83,SSE,158,2.3,2.4,76,0.00,-SN,,0.00,WeatherDisplay:10.37,2013-02-03 15:03:00,
2013-02-03 10:08:00,27.0,20.1,29.83,West,270,4.6,4.6,75,0.00,-SN,,0.00,WeatherDisplay:10.37,2013-02-03 15:08:00,
2013-02-03 10:13:00,27.1,20.3,29.83,NNW,338,1.1,2.0,75,0.00,-SN,,0.00,WeatherDisplay:10.37,2013-02-03 15:13:00,
2013-02-03 10:18:00,27.3,20.1,29.82,NNE,22,0.0,1.0,74,0.00,-SN,,0.00,WeatherDisplay:10.37,2013-02-03 15:18:00,
2013-02-03 10:23:00,27.5,20.3,29.82,ENE,68,4.6,4.6,74,0.00,-SN,,0.00,WeatherDisplay:10.37,2013-02-03 15:23:00,
2013-02-03 10:28:00,27.7,20.5,29.82,South,180,3.5,3.5,74,0.00,-SN,,0.00,WeatherDisplay:10.37,2013-02-03 15:28:00,
2013-02-03 10:33:00,28.0,20.8,29.82,NNW,338,0.0,0.8,74,0.00,-SN,,0.00,WeatherDisplay:10.37,2013-02-03 15:33:00,
2013-02-03 10:38:00,28.0,20.5,29.82,West,270,2.3,2.3,73,0.00,-SN,,0.00,WeatherDisplay:10.37,2013-02-03 15:38:00,
2013-02-03 10:43:00,28.0,20.5,29.82,NW,315,1.1,1.1,73,0.00,-SN,,0.00,WeatherDisplay:10.37,2013-02-03 15:43:00,
2013-02-03 10:48:00,28.0,20.5,29.82,NNE,22,2.3,2.3,73,0.00,-SN,,0.00,WeatherDisplay:10.37,2013-02-03 15:48:00,
2013-02-03 10:53:00,28.0,20.5,29.82,East,90,2.3,2.3,73,0.00,-SN,,0.00,WeatherDisplay:10.37,2013-02-03 15:53:00,
2013-02-03 10:58:00,28.0,20.2,29.82,NW,315,2.3,2.3,72,0.00,-SN,,0.00,WeatherDisplay:10.37,2013-02-03 15:58:00,
2013-02-03 11:03:00,28.0,19.8,29.82,NE,45,2.3,2.3,71,0.00,-SN,,0.00,WeatherDisplay:10.37,2013-02-03 16:03:00,
2013-02-03 11:08:00,28.0,20.5,29.82,ENE,68,2.3,2.3,73,0.00,-SN,,0.00,WeatherDisplay:10.37,2013-02-03 16:08:00,
2013-02-03 11:13:00,28.0,20.2,29.82,NNW,338,2.3,2.3,72,0.00,-SN,,0.00,WeatherDisplay:10.37,2013-02-03 16:13:00,
2013-02-03 11:18:00,28.4,20.5,29.81,NW,315,0.0,0.7,72,0.00,-SN,,0.00,WeatherDisplay:10.37,2013-02-03 16:18:00,
2013-02-03 11:23:00,28.8,20.5,29.81,South,180,1.1,1.1,71,0.00,-SN,,0.00,WeatherDisplay:10.37,2013-02-03 16:23:00,
2013-02-03 11:28:00,28.8,20.5,29.81,NNW,338,3.5,3.5,71,0.00,-SN,,0.00,WeatherDisplay:10.37,2013-02-03 16:28:00,
2013-02-03 11:33:00,28.8,20.5,29.81,ENE,68,0.0,0.7,71,0.00,-SN,,0.00,WeatherDisplay:10.37,2013-02-03 16:33:00,
2013-02-03 11:39:00,29.1,20.6,29.79,NE,45,2.3,2.3,70,0.00,-SN,,0.00,WeatherDisplay:10.37,2013-02-03 16:39:00,
2013-02-03 11:44:00,29.5,20.9,29.79,NW,315,2.3,2.3,70,0.00,-SN,,0.00,WeatherDisplay:10.37,2013-02-03 16:44:00,
2013-02-03 11:49:00,29.5,20.6,29.79,North,0,4.6,4.6,69,0.00,-SN,,0.00,WeatherDisplay:10.37,2013-02-03 16:49:00,
2013-02-03 11:54:00,29.7,21.1,29.79,SE,135,4.6,4.6,70,0.00,-SN,,0.00,WeatherDisplay:10.37,2013-02-03 16:54:00,
2013-02-03 11:59:00,30.2,21.6,29.77,SE,135,4.6,4.6,70,0.00,-SN,,0.00,WeatherDisplay:10.37,2013-02-03 16:59:00,
2013-02-03 12:04:00,30.2,20.9,29.77,NW,315,3.5,3.5,68,0.00,-SN,,0.00,WeatherDisplay:10.37,2013-02-03 17:04:00,
2013-02-03 12:09:00,30.2,21.2,29.77,NW,315,3.5,3.5,69,0.00,-SN,,0.00,WeatherDisplay:10.37,2013-02-03 17:09:00,
2013-02-03 12:14:00,30.6,21.2,29.77,North,0,3.5,3.5,68,0.00,-SN,,0.00,WeatherDisplay:10.37,2013-02-03 17:14:00,
2013-02-03 12:19:00,30.6,21.2,29.75,NW,315,2.3,2.3,68,0.00,-SN,,0.00,WeatherDisplay:10.37,2013-02-03 17:19:00,
2013-02-03 12:24:00,30.9,21.2,29.75,NE,45,2.3,2.3,67,0.00,-SN,,0.00,WeatherDisplay:10.37,2013-02-03 17:24:00,
2013-02-03 12:29:00,30.7,21.1,29.75,North,0,2.9,2.9,67,0.00,-SN,,0.00,WeatherDisplay:10.37,2013-02-03 17:29:00,
2013-02-03 12:34:00,31.1,21.4,29.75,NNE,22,3.5,3.5,67,0.00,-SN,,0.00,WeatherDisplay:10.37,2013-02-03 17:34:00,
2013-02-03 12:39:00,31.3,21.6,29.74,NE,45,0.0,1.5,67,0.00,-SN,,0.00,WeatherDisplay:10.37,2013-02-03 17:39:00,
2013-02-03 12:44:00,31.5,21.4,29.74,North,0,2.5,2.5,66,0.00,-SN,,0.00,WeatherDisplay:10.37,2013-02-03 17:44:00,
2013-02-03 12:49:00,31.5,21.4,29.74,West,270,2.3,2.3,66,0.00,-SN,,0.00,WeatherDisplay:10.37,2013-02-03 17:49:00,
2013-02-03 12:54:00,31.5,21.4,29.74,NW,315,2.3,2.3,66,0.00,-SN,,0.00,WeatherDisplay:10.37,2013-02-03 17:54:00,
2013-02-03 12:59:00,31.8,21.7,29.73,West,270,2.5,2.5,66,0.00,-SN,,0.00,WeatherDisplay:10.37,2013-02-03 17:59:00,
2013-02-03 13:04:00,31.6,21.2,29.73,NW,315,3.5,3.5,65,0.00,-SN,,0.00,WeatherDisplay:10.37,2013-02-03 18:04:00,
2013-02-03 13:09:00,31.3,20.9,29.73,NNW,338,2.5,2.5,65,0.00,-SN,,0.00,WeatherDisplay:10.37,2013-02-03 18:09:00,
2013-02-03 13:14:00,31.6,21.6,29.73,WSW,248,2.3,2.3,66,0.00,-SN,,0.00,WeatherDisplay:10.37,2013-02-03 18:14:00,
2013-02-03 13:19:00,31.8,21.4,29.73,WSW,248,4.6,4.6,65,0.00,-SN,,0.00,WeatherDisplay:10.37,2013-02-03 18:19:00,
2013-02-03 13:24:00,32.0,21.6,29.73,West,270,4.6,4.6,65,0.00,-SN,,0.00,WeatherDisplay:10.37,2013-02-03 18:24:00,
2013-02-03 13:29:00,32.4,22.3,29.73,NW,315,4.6,4.6,66,0.00,-SN,,0.00,WeatherDisplay:10.37,2013-02-03 18:29:00,
2013-02-03 13:34:00,32.5,22.1,29.73,WSW,248,0.0,2.2,65,0.00,-SN,,0.00,WeatherDisplay:10.37,2013-02-03 18:34:00,
2013-02-03 13:39:00,32.5,21.7,29.72,SW,225,4.6,4.6,64,0.00,-SN,,0.00,WeatherDisplay:10.37,2013-02-03 18:39:00,
2013-02-03 13:44:00,32.7,21.9,29.72,WNW,292,4.6,4.6,64,0.00,-SN,,0.00,WeatherDisplay:10.37,2013-02-03 18:44:00,
2013-02-03 13:49:00,32.7,22.2,29.72,NNE,22,3.1,3.1,65,0.00,-SN,,0.00,WeatherDisplay:10.37,2013-02-03 18:49:00,
2013-02-03 13:54:00,32.7,21.9,29.72,SSW,202,4.8,4.8,64,0.00,-SN,,0.00,WeatherDisplay:10.37,2013-02-03 18:54:00,
2013-02-03 13:59:00,32.4,21.5,29.71,South,180,3.5,3.5,64,0.00,-SN,,0.00,WeatherDisplay:10.37,2013-02-03 18:59:00,
2013-02-03 14:04:00,32.5,21.7,29.71,WSW,248,4.6,4.6,64,0.00,-SN,,0.00,WeatherDisplay:10.37,2013-02-03 19:04:00,
2013-02-03 14:09:00,33.1,22.2,29.71,WNW,292,3.5,3.5,64,0.00,-SN,,0.00,WeatherDisplay:10.37,2013-02-03 19:09:00,
2013-02-03 14:14:00,33.1,22.2,29.71,WSW,248,6.9,6.9,64,0.00,-SN,,0.00,WeatherDisplay:10.37,2013-02-03 19:14:00,
2013-02-03 14:19:00,33.3,22.0,29.70,SW,225,3.5,3.5,63,0.00,-SN,,0.00,WeatherDisplay:10.37,2013-02-03 19:19:00,
2013-02-03 14:24:00,33.4,22.2,29.70,West,270,4.6,4.6,63,0.00,-SN,,0.00,WeatherDisplay:10.37,2013-02-03 19:24:00,
2013-02-03 14:29:00,33.8,22.5,29.70,SE,135,0.0,1.4,63,0.00,-SN,,0.00,WeatherDisplay:10.37,2013-02-03 19:29:00,
2013-02-03 14:34:00,33.6,21.6,29.70,NNW,338,5.8,5.8,61,0.00,-SN,,0.00,WeatherDisplay:10.37,2013-02-03 19:34:00,
2013-02-03 14:39:00,33.4,21.4,29.69,North,0,5.8,5.8,61,0.00,-SN,,0.00,WeatherDisplay:10.37,2013-02-03 19:39:00,
2013-02-03 14:44:00,33.6,21.6,29.69,NW,315,5.8,5.8,61,0.00,-SN,,0.00,WeatherDisplay:10.37,2013-02-03 19:44:00,
2013-02-03 14:49:00,33.3,20.9,29.69,NW,315,4.6,4.6,60,0.00,-SN,,0.00,WeatherDisplay:10.37,2013-02-03 19:49:00,
2013-02-03 14:54:00,32.7,20.7,29.69,SW,225,3.5,3.5,61,0.00,-SN,,0.00,WeatherDisplay:10.37,2013-02-03 19:54:00,
2013-02-03 14:59:00,32.7,21.1,29.69,West,270,2.3,2.8,62,0.00,-SN,,0.00,WeatherDisplay:10.37,2013-02-03 19:59:00,
2013-02-03 15:04:00,32.7,20.7,29.69,West,270,4.6,4.6,61,0.00,-SN,,0.00,WeatherDisplay:10.37,2013-02-03 20:04:00,
2013-02-03 15:09:00,32.5,20.6,29.69,West,270,3.5,3.5,61,0.00,-SN,,0.00,WeatherDisplay:10.37,2013-02-03 20:09:00,
2013-02-03 15:14:00,32.4,20.4,29.69,WNW,292,3.5,3.5,61,0.00,-SN,,0.00,WeatherDisplay:10.37,2013-02-03 20:14:00,
2013-02-03 15:19:00,32.4,20.4,29.69,WNW,292,8.1,8.1,61,0.00,-SN,,0.00,WeatherDisplay:10.37,2013-02-03 20:19:00,
2013-02-03 15:24:00,32.0,19.7,29.69,West,270,6.9,6.9,60,0.00,-SN,,0.00,WeatherDisplay:10.37,2013-02-03 20:24:00,
2013-02-03 15:29:00,31.8,19.9,29.69,NW,315,5.8,5.8,61,0.00,-SN,,0.00,WeatherDisplay:10.37,2013-02-03 20:29:00,
2013-02-03 15:34:00,32.0,19.7,29.69,WNW,292,5.8,5.8,60,0.00,-SN,,0.00,WeatherDisplay:10.37,2013-02-03 20:34:00,
2013-02-03 15:39:00,31.8,19.1,29.69,NW,315,6.9,6.9,59,0.00,-SN,,0.00,WeatherDisplay:10.37,2013-02-03 20:39:00,
2013-02-03 15:44:00,31.8,19.5,29.69,WSW,248,3.5,3.7,60,0.00,-SN,,0.00,WeatherDisplay:10.37,2013-02-03 20:44:00,
2013-02-03 15:49:00,31.6,19.3,29.69,WNW,292,5.8,5.8,60,0.00,-SN,,0.00,WeatherDisplay:10.37,2013-02-03 20:49:00,
2013-02-03 15:54:00,31.5,18.8,29.69,WNW,292,5.8,5.8,59,0.00,-SN,,0.00,WeatherDisplay:10.37,2013-02-03 20:54:00,
2013-02-03 15:59:00,31.3,18.6,29.69,NW,315,5.8,5.8,59,0.00,-SN,,0.00,WeatherDisplay:10.37,2013-02-03 20:59:00,
2013-02-03 16:04:00,31.3,18.6,29.69,West,270,3.5,3.5,59,0.00,-SN,,0.00,WeatherDisplay:10.37,2013-02-03 21:04:00,
2013-02-03 16:09:00,31.3,18.6,29.69,WNW,292,6.9,6.9,59,0.00,-SN,,0.00,WeatherDisplay:10.37,2013-02-03 21:09:00,
2013-02-03 16:14:00,31.1,18.0,29.69,NNW,338,5.8,5.8,58,0.00,-SN,,0.00,WeatherDisplay:10.37,2013-02-03 21:14:00,
2013-02-03 16:19:00,30.9,17.9,29.69,WNW,292,4.6,4.6,58,0.00,-SN,,0.00,WeatherDisplay:10.37,2013-02-03 21:19:00,
2013-02-03 16:24:00,30.9,17.9,29.69,NW,315,4.6,4.6,58,0.00,-SN,,0.00,WeatherDisplay:10.37,2013-02-03 21:24:00,
2013-02-03 16:29:00,30.7,17.7,29.69,NW,315,5.8,5.8,58,0.00,-SN,,0.00,WeatherDisplay:10.37,2013-02-03 21:29:00,
2013-02-03 16:34:00,30.6,17.9,29.69,NW,315,3.5,3.5,59,0.00,-SN,,0.00,WeatherDisplay:10.37,2013-02-03 21:34:00,
2013-02-03 16:39:00,30.2,18.0,29.69,NW,315,4.6,4.6,60,0.00,-SN,,0.00,WeatherDisplay:10.37,2013-02-03 21:39:00,
2013-02-03 16:44:00,30.2,18.4,29.69,WSW,248,4.6,4.6,61,0.00,-SN,,0.00,WeatherDisplay:10.37,2013-02-03 21:44:00,
2013-02-03 16:49:00,30.2,18.4,29.69,West,270,6.2,6.2,61,0.00,-SN,,0.00,WeatherDisplay:10.37,2013-02-03 21:49:00,
2013-02-03 16:54:00,29.8,18.0,29.69,WSW,248,4.6,4.6,61,0.00,-SN,,0.00,WeatherDisplay:10.37,2013-02-03 21:54:00,
2013-02-03 16:59:00,29.8,18.4,29.68,West,270,2.3,3.1,62,0.00,-SN,,0.00,WeatherDisplay:10.37,2013-02-03 21:59:00,
2013-02-03 17:04:00,29.5,18.1,29.68,West,270,4.6,4.6,62,0.00,-SN,,0.00,WeatherDisplay:10.37,2013-02-03 22:04:00,
2013-02-03 17:09:00,29.5,18.4,29.68,WSW,248,2.3,2.5,63,0.00,-SN,,0.00,WeatherDisplay:10.37,2013-02-03 22:09:00,
2013-02-03 17:14:00,29.1,18.1,29.68,West,270,3.5,3.5,63,0.00,-SN,,0.00,WeatherDisplay:10.37,2013-02-03 22:14:00,
2013-02-03 17:19:00,28.9,18.3,29.69,NW,315,3.5,3.5,64,0.00,-SN,,0.00,WeatherDisplay:10.37,2013-02-03 22:19:00,
2013-02-03 17:24:00,28.8,17.7,29.69,WNW,292,4.6,4.6,63,0.00,-SN,,0.00,WeatherDisplay:10.37,2013-02-03 22:24:00,
2013-02-03 17:29:00,28.6,17.6,29.69,WSW,248,4.6,4.6,63,0.00,-SN,,0.00,WeatherDisplay:10.37,2013-02-03 22:29:00,
2013-02-03 17:34:00,28.4,17.4,29.69,West,270,4.6,4.6,63,0.00,-SN,,0.00,WeatherDisplay:10.37,2013-02-03 22:34:00,
2013-02-03 17:39:00,28.4,17.4,29.69,WNW,292,2.3,2.8,63,0.00,-SN,,0.00,WeatherDisplay:10.37,2013-02-03 22:39:00,
2013-02-03 17:44:00,28.2,17.6,29.69,WSW,248,4.6,4.6,64,0.00,-SN,,0.00,WeatherDisplay:10.37,2013-02-03 22:44:00,
2013-02-03 17:49:00,28.0,17.4,29.69,WNW,292,3.5,3.5,64,0.00,-SN,,0.00,WeatherDisplay:10.37,2013-02-03 22:49:00,
2013-02-03 17:54:00,28.0,17.4,29.69,West,270,2.3,2.4,64,0.00,-SN,,0.00,WeatherDisplay:10.37,2013-02-03 22:54:00,
2013-02-03 17:59:00,27.9,17.3,29.69,WNW,292,2.6,2.6,64,0.00,-SN,,0.00,WeatherDisplay:10.37,2013-02-03 22:59:00,
2013-02-03 18:04:00,27.7,17.4,29.69,WNW,292,1.5,2.0,65,0.00,-SN,,0.00,WeatherDisplay:10.37,2013-02-03 23:04:00,
2013-02-03 18:09:00,27.7,17.4,29.69,WNW,292,1.5,2.0,65,0.00,-SN,,0.00,WeatherDisplay:10.37,2013-02-03 23:09:00,
2013-02-03 18:14:00,27.5,17.3,29.69,NW,315,2.3,2.3,65,0.00,-SN,,0.00,WeatherDisplay:10.37,2013-02-03 23:14:00,
2013-02-03 18:19:00,27.3,17.1,29.70,WNW,292,3.5,3.5,65,0.00,-SN,,0.00,WeatherDisplay:10.37,2013-02-03 23:19:00,
2013-02-03 18:24:00,27.3,17.1,29.70,WNW,292,2.8,2.8,65,0.00,-SN,,0.00,WeatherDisplay:10.37,2013-02-03 23:24:00,
2013-02-03 18:29:00,27.3,17.1,29.70,West,270,2.3,2.3,65,0.00,-SN,,0.00,WeatherDisplay:10.37,2013-02-03 23:29:00,
2013-02-03 18:34:00,27.3,17.5,29.70,NW,315,2.3,2.3,66,0.00,-SN,,0.00,WeatherDisplay:10.37,2013-02-03 23:34:00,
2013-02-03 18:39:00,27.3,17.5,29.71,WSW,248,2.3,2.3,66,0.00,-SN,,0.00,WeatherDisplay:10.37,2013-02-03 23:39:00,
2013-02-03 18:44:00,27.0,17.1,29.71,WSW,248,2.3,2.3,66,0.00,-SN,,0.00,WeatherDisplay:10.37,2013-02-03 23:44:00,
2013-02-03 18:49:00,27.0,17.1,29.71,West,270,1.3,1.3,66,0.00,-SN,,0.00,WeatherDisplay:10.37,2013-02-03 23:49:00,
2013-02-03 18:54:00,26.8,16.6,29.71,WNW,292,1.1,1.1,65,0.00,-SN,,0.00,WeatherDisplay:10.37,2013-02-03 23:54:00,
2013-02-03 18:59:00,27.0,17.1,29.70,WNW,292,2.3,2.3,66,0.00,-SN,,0.00,WeatherDisplay:10.37,2013-02-03 23:59:00,
2013-02-03 19:04:00,26.6,16.4,29.70,West,270,2.3,2.3,65,0.00,-SN,,0.00,WeatherDisplay:10.37,2013-02-04 00:04:00,
2013-02-03 19:09:00,26.6,16.4,29.70,West,270,2.3,2.3,65,0.00,-SN,,0.00,WeatherDisplay:10.37,2013-02-04 00:09:00,
2013-02-03 19:14:00,26.6,16.4,29.70,West,270,1.1,1.1,65,0.00,-SN,,0.00,WeatherDisplay:10.37,2013-02-04 00:14:00,
2013-02-03 19:19:00,26.4,16.2,29.71,WSW,248,2.3,2.3,65,0.00,-SN,,0.00,WeatherDisplay:10.37,2013-02-04 00:19:00,
2013-02-03 19:24:00,26.6,16.4,29.71,West,270,4.6,4.6,65,0.00,-SN,,0.00,WeatherDisplay:10.37,2013-02-04 00:24:00,
2013-02-03 19:29:00,26.6,16.4,29.71,West,270,2.3,2.3,65,0.00,-SN,,0.00,WeatherDisplay:10.37,2013-02-04 00:29:00,
2013-02-03 19:34:00,26.2,16.4,29.71,West,270,0.0,1.4,66,0.00,-SN,,0.00,WeatherDisplay:10.37,2013-02-04 00:34:00,
2013-02-03 19:39:00,26.2,16.4,29.72,West,270,2.3,2.3,66,0.00,-SN,,0.00,WeatherDisplay:10.37,2013-02-04 00:39:00,
2013-02-03 19:44:00,26.1,16.2,29.72,West,270,0.0,0.3,66,0.00,-SN,,0.00,WeatherDisplay:10.37,2013-02-04 00:44:00,
2013-02-03 19:49:00,25.9,16.4,29.72,West,270,0.0,0.3,67,0.00,-SN,,0.00,WeatherDisplay:10.37,2013-02-04 00:49:00,
2013-02-03 19:54:00,25.9,16.4,29.72,West,270,0.0,0.0,67,0.00,-SN,,0.00,WeatherDisplay:10.37,2013-02-04 00:54:00,
2013-02-03 19:59:00,25.9,16.4,29.71,West,270,0.0,0.0,67,0.00,-SN,,0.00,WeatherDisplay:10.37,2013-02-04 00:59:00,
2013-02-03 20:04:00,25.9,16.8,29.71,WSW,248,0.0,0.0,68,0.00,-SN,,0.00,WeatherDisplay:10.37,2013-02-04 01:04:00,
2013-02-03 20:09:00,25.9,16.8,29.71,West,270,0.0,0.0,68,0.00,-SN,,0.00,WeatherDisplay:10.37,2013-02-04 01:09:00,
2013-02-03 20:14:00,25.3,16.6,29.71,WSW,248,0.0,0.0,69,0.00,-SN,,0.00,WeatherDisplay:10.37,2013-02-04 01:14:00,
2013-02-03 20:19:00,25.2,16.4,29.72,West,270,0.0,0.1,69,0.00,-SN,,0.00,WeatherDisplay:10.37,2013-02-04 01:19:00,
2013-02-03 20:24:00,25.2,16.4,29.72,WNW,292,0.0,0.1,69,0.00,-SN,,0.00,WeatherDisplay:10.37,2013-02-04 01:24:00,
2013-02-03 20:29:00,25.2,16.4,29.72,West,270,0.0,0.0,69,0.00,-SN,,0.00,WeatherDisplay:10.37,2013-02-04 01:29:00,
2013-02-03 20:34:00,25.2,16.4,29.72,SW,225,0.0,0.0,69,0.00,-SN,,0.00,WeatherDisplay:10.37,2013-02-04 01:34:00,
2013-02-03 20:39:00,24.8,16.4,29.71,SW,225,0.0,0.0,70,0.00,-SN,,0.00,WeatherDisplay:10.37,2013-02-04 01:39:00,
2013-02-03 20:44:00,24.6,16.2,29.71,WSW,248,0.0,0.0,70,0.00,-SN,,0.00,WeatherDisplay:10.37,2013-02-04 01:44:00,
2013-02-03 20:49:00,24.6,16.6,29.71,West,270,0.0,0.0,71,0.00,-SN,,0.00,WeatherDisplay:10.37,2013-02-04 01:49:00,
2013-02-03 20:54:00,24.8,16.7,29.71,WNW,292,0.0,0.0,71,0.00,-SN,,0.00,WeatherDisplay:10.37,2013-02-04 01:54:00,
2013-02-03 20:59:00,24.4,16.4,29.72,West,270,0.0,0.0,71,0.00,-SN,,0.00,WeatherDisplay:10.37,2013-02-04 01:59:00,
2013-02-03 21:04:00,24.4,16.4,29.72,WSW,248,0.0,0.0,71,0.00,-SN,,0.00,WeatherDisplay:10.37,2013-02-04 02:04:00,
2013-02-03 21:09:00,24.4,16.7,29.72,WNW,292,0.0,0.0,72,0.00,-SN,,0.00,WeatherDisplay:10.37,2013-02-04 02:09:00,
2013-02-03 21:14:00,24.3,16.5,29.72,West,270,0.0,0.0,72,0.00,-SN,,0.00,WeatherDisplay:10.37,2013-02-04 02:14:00,
2013-02-03 21:19:00,24.4,16.7,29.71,WSW,248,0.0,0.0,72,0.00,-SN,,0.00,WeatherDisplay:10.37,2013-02-04 02:19:00,
2013-02-03 21:24:00,24.1,16.7,29.71,WSW,248,0.0,0.0,73,0.00,-SN,,0.00,WeatherDisplay:10.37,2013-02-04 02:24:00,
2013-02-03 21:29:00,24.1,16.7,29.71,South,180,0.0,0.0,73,0.00,-SN,,0.00,WeatherDisplay:10.37,2013-02-04 02:29:00,
2013-02-03 21:34:00,24.1,16.7,29.71,SW,225,0.0,0.0,73,0.00,-SN,,0.00,WeatherDisplay:10.37,2013-02-04 02:34:00,
2013-02-03 21:39:00,24.1,16.7,29.71,South,180,0.0,0.0,73,0.00,-SN,,0.00,WeatherDisplay:10.37,2013-02-04 02:39:00,
2013-02-03 21:44:00,23.9,16.5,29.71,South,180,0.0,0.0,73,0.00,-SN,,0.00,WeatherDisplay:10.37,2013-02-04 02:44:00,
2013-02-03 21:49:00,23.9,16.5,29.71,South,180,0.0,0.0,73,0.00,-SN,,0.00,WeatherDisplay:10.37,2013-02-04 02:49:00,
2013-02-03 21:54:00,23.9,16.8,29.71,SW,225,0.0,0.0,74,0.00,-SN,,0.00,WeatherDisplay:10.37,2013-02-04 02:54:00,
2013-02-03 21:59:00,24.1,17.0,29.71,South,180,1.1,0.0,74,0.00,-SN,,0.00,WeatherDisplay:10.37,2013-02-04 02:59:00,
2013-02-03 22:04:00,24.1,17.0,29.71,South,180,0.0,0.0,74,0.00,-SN,,0.00,WeatherDisplay:10.37,2013-02-04 03:04:00,
2013-02-03 22:09:00,24.1,17.0,29.71,South,180,1.1,1.1,74,0.00,-SN,,0.00,WeatherDisplay:10.37,2013-02-04 03:09:00,
2013-02-03 22:14:00,24.1,17.0,29.71,South,180,0.0,0.1,74,0.00,-SN,,0.00,WeatherDisplay:10.37,2013-02-04 03:14:00,
2013-02-03 22:19:00,24.4,17.3,29.70,SW,225,1.1,1.1,74,0.00,-SN,,0.00,WeatherDisplay:10.37,2013-02-04 03:19:00,
2013-02-03 22:24:00,24.4,17.3,29.70,SW,225,1.7,1.7,74,0.00,-SN,,0.00,WeatherDisplay:10.37,2013-02-04 03:24:00,
2013-02-03 22:29:00,24.4,17.3,29.70,South,180,1.1,1.1,74,0.00,-SN,,0.00,WeatherDisplay:10.37,2013-02-04 03:29:00,
2013-02-03 22:34:00,24.6,17.5,29.70,South,180,1.1,1.1,74,0.00,-SN,,0.00,WeatherDisplay:10.37,2013-02-04 03:34:00,
2013-02-03 22:39:00,24.8,17.7,29.70,SW,225,0.0,0.2,74,0.00,-SN,,0.00,WeatherDisplay:10.37,2013-02-04 03:39:00,
2013-02-03 22:44:00,25.2,18.0,29.70,South,180,0.0,0.2,74,0.00,-SN,,0.00,WeatherDisplay:10.37,2013-02-04 03:44:00,
2013-02-03 22:49:00,25.2,18.0,29.70,West,270,0.0,0.0,74,0.00,-SN,,0.00,WeatherDisplay:10.37,2013-02-04 03:49:00,
2013-02-03 22:54:00,25.2,18.0,29.70,South,180,2.3,2.3,74,0.00,-SN,,0.00,WeatherDisplay:10.37,2013-02-04 03:54:00,
2013-02-03 22:59:00,25.2,18.0,29.70,SSW,202,0.0,0.2,74,0.00,-SN,,0.00,WeatherDisplay:10.37,2013-02-04 03:59:00,
2013-02-03 23:04:00,25.2,18.0,29.70,WSW,248,0.0,0.0,74,0.00,-SN,,0.00,WeatherDisplay:10.37,2013-02-04 04:04:00,
2013-02-03 23:09:00,25.2,18.0,29.70,West,270,0.0,0.0,74,0.00,-SN,,0.00,WeatherDisplay:10.37,2013-02-04 04:09:00,
2013-02-03 23:14:00,24.8,17.7,29.70,SSW,202,0.0,0.0,74,0.00,-SN,,0.00,WeatherDisplay:10.37,2013-02-04 04:14:00,
2013-02-03 23:19:00,25.2,18.0,29.71,WSW,248,0.0,0.0,74,0.00,-SN,,0.00,WeatherDisplay:10.37,2013-02-04 04:19:00,
2013-02-03 23:24:00,25.2,18.0,29.71,South,180,0.0,0.0,74,0.00,-SN,,0.00,WeatherDisplay:10.37,2013-02-04 04:24:00,
2013-02-03 23:29:00,25.2,18.0,29.71,SW,225,0.0,0.0,74,0.00,-SN,,0.00,WeatherDisplay:10.37,2013-02-04 04:29:00,
2013-02-03 23:34:00,25.2,18.0,29.71,SSW,202,1.1,0.0,74,0.00,-SN,,0.00,WeatherDisplay:10.37,2013-02-04 04:34:00,
2013-02-03 23:39:00,25.2,18.3,29.70,South,180,1.1,0.0,75,0.00,-SN,,0.00,WeatherDisplay:10.37,2013-02-04 04:39:00,
2013-02-03 23:44:00,25.2,18.3,29.70,West,270,0.0,0.0,75,0.00,-SN,,0.00,WeatherDisplay:10.37,2013-02-04 04:44:00,
2013-02-03 23:49:00,25.2,18.3,29.70,WSW,248,1.1,1.1,75,0.00,-SN,,0.00,WeatherDisplay:10.37,2013-02-04 04:49:00,
2013-02-03 23:54:00,25.2,18.3,29.70,SSW,202,3.5,3.5,75,0.00,-SN,,0.00,WeatherDisplay:10.37,2013-02-04 04:54:00,
2013-02-03 23:59:00,25.2,18.3,29.70,SSW,202,3.5,3.5,75,0.00,-SN,,0.00,WeatherDisplay:10.37,2013-02-04 04:59:00,